sensor_id;sensor_type;location;lat;lon;timestamp;P1;durP1;ratioP1;P2;durP2;ratioP2
72557;SDS011;60583;50.094;8.748;2023-02-08T00:00:22;14.68;;;8.43;;
72557;SDS011;60583;50.094;8.748;2023-02-08T00:02:48;15.57;;;8.73;;
72557;SDS011;60583;50.094;8.748;2023-02-08T00:05:14;16.83;;;9.30;;
72557;SDS011;60583;50.094;8.748;2023-02-08T00:07:41;17.15;;;8.82;;
72557;SDS011;60583;50.094;8.748;2023-02-08T00:10:06;17.10;;;8.52;;
72557;SDS011;60583;50.094;8.748;2023-02-08T00:12:33;19.00;;;9.20;;
72557;SDS011;60583;50.094;8.748;2023-02-08T00:14:58;18.35;;;9.70;;
72557;SDS011;60583;50.094;8.748;2023-02-08T00:17:24;16.55;;;9.15;;
72557;SDS011;60583;50.094;8.748;2023-02-08T00:19:49;15.30;;;8.48;;
72557;SDS011;60583;50.094;8.748;2023-02-08T00:22:15;17.00;;;8.57;;
72557;SDS011;60583;50.094;8.748;2023-02-08T00:24:40;17.80;;;9.05;;
72557;SDS011;60583;50.094;8.748;2023-02-08T00:27:06;19.80;;;9.88;;
72557;SDS011;60583;50.094;8.748;2023-02-08T00:29:31;16.65;;;8.82;;
72557;SDS011;60583;50.094;8.748;2023-02-08T00:31:57;16.35;;;8.88;;
72557;SDS011;60583;50.094;8.748;2023-02-08T00:34:23;18.98;;;9.57;;
72557;SDS011;60583;50.094;8.748;2023-02-08T00:36:48;19.05;;;9.93;;
72557;SDS011;60583;50.094;8.748;2023-02-08T00:39:14;17.65;;;9.93;;
72557;SDS011;60583;50.094;8.748;2023-02-08T00:41:39;15.63;;;8.70;;
72557;SDS011;60583;50.094;8.748;2023-02-08T00:44:05;17.27;;;9.13;;
72557;SDS011;60583;50.094;8.748;2023-02-08T00:46:30;18.20;;;9.50;;
72557;SDS011;60583;50.094;8.748;2023-02-08T00:48:56;18.77;;;9.93;;
72557;SDS011;60583;50.094;8.748;2023-02-08T00:51:21;19.10;;;9.88;;
72557;SDS011;60583;50.094;8.748;2023-02-08T00:53:47;17.38;;;9.15;;
72557;SDS011;60583;50.094;8.748;2023-02-08T00:56:13;16.95;;;8.82;;
72557;SDS011;60583;50.094;8.748;2023-02-08T00:58:40;15.77;;;9.88;;
72557;SDS011;60583;50.094;8.748;2023-02-08T01:01:06;17.00;;;9.65;;
72557;SDS011;60583;50.094;8.748;2023-02-08T01:03:33;19.63;;;9.38;;
72557;SDS011;60583;50.094;8.748;2023-02-08T01:06:00;15.50;;;8.90;;
72557;SDS011;60583;50.094;8.748;2023-02-08T01:08:26;21.08;;;10.43;;
72557;SDS011;60583;50.094;8.748;2023-02-08T01:10:52;21.30;;;9.57;;
72557;SDS011;60583;50.094;8.748;2023-02-08T01:13:17;19.42;;;10.48;;
72557;SDS011;60583;50.094;8.748;2023-02-08T01:15:43;17.45;;;10.82;;
72557;SDS011;60583;50.094;8.748;2023-02-08T01:18:08;14.18;;;8.57;;
72557;SDS011;60583;50.094;8.748;2023-02-08T01:20:35;16.83;;;9.35;;
72557;SDS011;60583;50.094;8.748;2023-02-08T01:23:02;16.95;;;8.80;;
72557;SDS011;60583;50.094;8.748;2023-02-08T01:25:28;16.42;;;9.10;;
72557;SDS011;60583;50.094;8.748;2023-02-08T01:27:53;16.92;;;8.48;;
72557;SDS011;60583;50.094;8.748;2023-02-08T01:30:21;15.77;;;8.80;;
72557;SDS011;60583;50.094;8.748;2023-02-08T01:32:47;16.45;;;8.45;;
72557;SDS011;60583;50.094;8.748;2023-02-08T01:35:13;14.02;;;7.97;;
72557;SDS011;60583;50.094;8.748;2023-02-08T01:37:39;15.25;;;8.25;;
72557;SDS011;60583;50.094;8.748;2023-02-08T01:40:04;15.55;;;8.68;;
72557;SDS011;60583;50.094;8.748;2023-02-08T01:42:30;14.80;;;8.23;;
72557;SDS011;60583;50.094;8.748;2023-02-08T01:47:40;14.95;;;8.05;;
72557;SDS011;60583;50.094;8.748;2023-02-08T01:50:08;16.60;;;7.78;;
72557;SDS011;60583;50.094;8.748;2023-02-08T01:52:34;12.68;;;8.05;;
72557;SDS011;60583;50.094;8.748;2023-02-08T01:55:02;14.35;;;8.05;;
72557;SDS011;60583;50.094;8.748;2023-02-08T01:57:33;14.80;;;8.10;;
72557;SDS011;60583;50.094;8.748;2023-02-08T02:00:04;17.40;;;8.50;;
72557;SDS011;60583;50.094;8.748;2023-02-08T02:02:32;20.10;;;8.40;;
72557;SDS011;60583;50.094;8.748;2023-02-08T02:05:00;16.02;;;8.38;;
72557;SDS011;60583;50.094;8.748;2023-02-08T02:07:27;18.00;;;8.02;;
72557;SDS011;60583;50.094;8.748;2023-02-08T02:10:08;15.50;;;7.88;;
72557;SDS011;60583;50.094;8.748;2023-02-08T02:12:34;16.80;;;8.80;;
72557;SDS011;60583;50.094;8.748;2023-02-08T02:15:02;15.13;;;7.72;;
72557;SDS011;60583;50.094;8.748;2023-02-08T02:17:28;16.75;;;8.35;;
72557;SDS011;60583;50.094;8.748;2023-02-08T02:28:09;20.63;;;9.55;;
72557;SDS011;60583;50.094;8.748;2023-02-08T02:31:08;26.08;;;10.80;;
72557;SDS011;60583;50.094;8.748;2023-02-08T02:34:03;17.98;;;8.77;;
72557;SDS011;60583;50.094;8.748;2023-02-08T02:36:45;16.60;;;8.30;;
72557;SDS011;60583;50.094;8.748;2023-02-08T02:48:09;16.17;;;8.63;;
72557;SDS011;60583;50.094;8.748;2023-02-08T02:50:47;16.73;;;8.95;;
72557;SDS011;60583;50.094;8.748;2023-02-08T02:56:11;17.73;;;8.43;;
72557;SDS011;60583;50.094;8.748;2023-02-08T02:58:48;17.88;;;9.27;;
72557;SDS011;60583;50.094;8.748;2023-02-08T03:01:20;19.10;;;8.25;;
72557;SDS011;60583;50.094;8.748;2023-02-08T03:03:50;18.02;;;10.50;;
72557;SDS011;60583;50.094;8.748;2023-02-08T03:06:20;15.63;;;8.65;;
72557;SDS011;60583;50.094;8.748;2023-02-08T03:09:16;18.52;;;8.52;;
72557;SDS011;60583;50.094;8.748;2023-02-08T03:12:38;22.98;;;8.95;;
72557;SDS011;60583;50.094;8.748;2023-02-08T03:15:05;17.52;;;8.55;;
72557;SDS011;60583;50.094;8.748;2023-02-08T03:20:51;17.63;;;8.50;;
72557;SDS011;60583;50.094;8.748;2023-02-08T03:26:28;15.38;;;8.18;;
72557;SDS011;60583;50.094;8.748;2023-02-08T03:31:56;16.83;;;8.80;;
72557;SDS011;60583;50.094;8.748;2023-02-08T03:34:32;17.00;;;8.52;;
72557;SDS011;60583;50.094;8.748;2023-02-08T03:37:09;15.55;;;8.63;;
72557;SDS011;60583;50.094;8.748;2023-02-08T03:39:53;16.75;;;8.70;;
72557;SDS011;60583;50.094;8.748;2023-02-08T03:42:24;16.58;;;8.40;;
72557;SDS011;60583;50.094;8.748;2023-02-08T03:44:54;15.98;;;9.32;;
72557;SDS011;60583;50.094;8.748;2023-02-08T03:47:25;17.17;;;9.43;;
72557;SDS011;60583;50.094;8.748;2023-02-08T03:49:53;15.07;;;9.07;;
72557;SDS011;60583;50.094;8.748;2023-02-08T03:52:23;17.75;;;9.05;;
72557;SDS011;60583;50.094;8.748;2023-02-08T03:54:51;15.05;;;9.13;;
72557;SDS011;60583;50.094;8.748;2023-02-08T03:57:21;16.42;;;9.00;;
72557;SDS011;60583;50.094;8.748;2023-02-08T03:59:53;15.43;;;8.35;;
72557;SDS011;60583;50.094;8.748;2023-02-08T04:02:22;14.98;;;8.80;;
72557;SDS011;60583;50.094;8.748;2023-02-08T04:04:52;14.82;;;8.02;;
72557;SDS011;60583;50.094;8.748;2023-02-08T04:07:20;15.48;;;8.70;;
72557;SDS011;60583;50.094;8.748;2023-02-08T04:09:45;15.23;;;8.32;;
72557;SDS011;60583;50.094;8.748;2023-02-08T04:12:11;17.20;;;9.15;;
72557;SDS011;60583;50.094;8.748;2023-02-08T04:14:37;17.00;;;8.48;;
72557;SDS011;60583;50.094;8.748;2023-02-08T04:17:04;16.67;;;8.18;;
72557;SDS011;60583;50.094;8.748;2023-02-08T04:19:29;15.75;;;8.07;;
72557;SDS011;60583;50.094;8.748;2023-02-08T04:21:55;13.65;;;8.20;;
72557;SDS011;60583;50.094;8.748;2023-02-08T04:24:20;15.07;;;8.10;;
72557;SDS011;60583;50.094;8.748;2023-02-08T04:26:46;16.20;;;8.77;;
72557;SDS011;60583;50.094;8.748;2023-02-08T04:29:11;14.43;;;9.05;;
72557;SDS011;60583;50.094;8.748;2023-02-08T04:31:37;16.25;;;9.18;;
72557;SDS011;60583;50.094;8.748;2023-02-08T04:34:02;14.65;;;8.27;;
72557;SDS011;60583;50.094;8.748;2023-02-08T04:36:28;16.30;;;8.27;;
72557;SDS011;60583;50.094;8.748;2023-02-08T04:38:53;16.02;;;9.27;;
72557;SDS011;60583;50.094;8.748;2023-02-08T04:41:19;14.95;;;8.45;;
72557;SDS011;60583;50.094;8.748;2023-02-08T04:43:44;16.35;;;8.73;;
72557;SDS011;60583;50.094;8.748;2023-02-08T04:46:10;15.88;;;8.02;;
72557;SDS011;60583;50.094;8.748;2023-02-08T04:48:35;16.65;;;8.65;;
72557;SDS011;60583;50.094;8.748;2023-02-08T04:51:01;14.20;;;8.00;;
72557;SDS011;60583;50.094;8.748;2023-02-08T04:53:27;15.95;;;9.07;;
72557;SDS011;60583;50.094;8.748;2023-02-08T04:55:52;15.57;;;8.52;;
72557;SDS011;60583;50.094;8.748;2023-02-08T04:58:18;17.13;;;9.48;;
72557;SDS011;60583;50.094;8.748;2023-02-08T05:00:43;17.02;;;8.50;;
72557;SDS011;60583;50.094;8.748;2023-02-08T05:03:09;17.98;;;9.20;;
72557;SDS011;60583;50.094;8.748;2023-02-08T05:05:35;17.98;;;9.55;;
72557;SDS011;60583;50.094;8.748;2023-02-08T05:08:01;18.13;;;9.27;;
72557;SDS011;60583;50.094;8.748;2023-02-08T05:10:27;18.30;;;10.32;;
72557;SDS011;60583;50.094;8.748;2023-02-08T05:12:52;18.67;;;10.15;;
72557;SDS011;60583;50.094;8.748;2023-02-08T05:15:18;17.38;;;9.23;;
72557;SDS011;60583;50.094;8.748;2023-02-08T05:17:44;17.33;;;8.98;;
72557;SDS011;60583;50.094;8.748;2023-02-08T05:20:09;18.13;;;9.50;;
72557;SDS011;60583;50.094;8.748;2023-02-08T05:22:36;16.00;;;9.00;;
72557;SDS011;60583;50.094;8.748;2023-02-08T05:25:01;15.32;;;8.18;;
72557;SDS011;60583;50.094;8.748;2023-02-08T05:27:28;17.70;;;8.68;;
72557;SDS011;60583;50.094;8.748;2023-02-08T05:29:53;17.33;;;8.52;;
72557;SDS011;60583;50.094;8.748;2023-02-08T05:32:19;16.52;;;8.57;;
72557;SDS011;60583;50.094;8.748;2023-02-08T05:34:44;18.17;;;8.52;;
72557;SDS011;60583;50.094;8.748;2023-02-08T05:37:10;14.35;;;8.15;;
72557;SDS011;60583;50.094;8.748;2023-02-08T05:39:36;15.77;;;9.27;;
72557;SDS011;60583;50.094;8.748;2023-02-08T05:42:02;15.93;;;8.25;;
72557;SDS011;60583;50.094;8.748;2023-02-08T05:44:27;14.38;;;6.97;;
72557;SDS011;60583;50.094;8.748;2023-02-08T05:46:53;15.98;;;8.48;;
72557;SDS011;60583;50.094;8.748;2023-02-08T05:49:18;16.23;;;9.13;;
72557;SDS011;60583;50.094;8.748;2023-02-08T05:51:44;17.83;;;8.70;;
72557;SDS011;60583;50.094;8.748;2023-02-08T05:54:09;16.65;;;8.50;;
72557;SDS011;60583;50.094;8.748;2023-02-08T05:56:35;18.13;;;8.02;;
72557;SDS011;60583;50.094;8.748;2023-02-08T05:59:00;17.05;;;8.43;;
72557;SDS011;60583;50.094;8.748;2023-02-08T06:01:26;17.20;;;8.38;;
72557;SDS011;60583;50.094;8.748;2023-02-08T06:03:52;16.02;;;9.20;;
72557;SDS011;60583;50.094;8.748;2023-02-08T06:06:18;17.17;;;9.73;;
72557;SDS011;60583;50.094;8.748;2023-02-08T06:08:44;17.05;;;8.77;;
72557;SDS011;60583;50.094;8.748;2023-02-08T06:11:10;17.48;;;7.22;;
72557;SDS011;60583;50.094;8.748;2023-02-08T06:13:35;14.02;;;7.20;;
72557;SDS011;60583;50.094;8.748;2023-02-08T06:16:01;17.60;;;8.00;;
72557;SDS011;60583;50.094;8.748;2023-02-08T06:18:26;14.57;;;8.75;;
72557;SDS011;60583;50.094;8.748;2023-02-08T06:20:52;16.67;;;8.45;;
72557;SDS011;60583;50.094;8.748;2023-02-08T06:23:19;15.00;;;7.90;;
72557;SDS011;60583;50.094;8.748;2023-02-08T06:25:44;14.80;;;7.43;;
72557;SDS011;60583;50.094;8.748;2023-02-08T06:28:10;13.88;;;6.90;;
72557;SDS011;60583;50.094;8.748;2023-02-08T06:30:36;14.18;;;9.38;;
72557;SDS011;60583;50.094;8.748;2023-02-08T06:33:02;13.48;;;6.97;;
72557;SDS011;60583;50.094;8.748;2023-02-08T06:35:28;13.63;;;6.97;;
72557;SDS011;60583;50.094;8.748;2023-02-08T06:37:53;13.32;;;7.07;;
72557;SDS011;60583;50.094;8.748;2023-02-08T06:40:19;16.25;;;7.97;;
72557;SDS011;60583;50.094;8.748;2023-02-08T06:42:48;14.90;;;7.50;;
72557;SDS011;60583;50.094;8.748;2023-02-08T06:45:14;13.90;;;7.82;;
72557;SDS011;60583;50.094;8.748;2023-02-08T06:47:39;14.65;;;7.40;;
72557;SDS011;60583;50.094;8.748;2023-02-08T06:50:05;15.25;;;7.28;;
72557;SDS011;60583;50.094;8.748;2023-02-08T06:52:30;14.27;;;7.05;;
72557;SDS011;60583;50.094;8.748;2023-02-08T06:54:56;14.95;;;7.60;;
72557;SDS011;60583;50.094;8.748;2023-02-08T06:57:21;15.45;;;7.65;;
72557;SDS011;60583;50.094;8.748;2023-02-08T06:59:47;14.85;;;7.03;;
72557;SDS011;60583;50.094;8.748;2023-02-08T07:02:14;14.75;;;7.03;;
72557;SDS011;60583;50.094;8.748;2023-02-08T07:04:41;15.50;;;7.20;;
72557;SDS011;60583;50.094;8.748;2023-02-08T07:07:08;12.27;;;6.82;;
72557;SDS011;60583;50.094;8.748;2023-02-08T07:09:34;13.13;;;7.28;;
72557;SDS011;60583;50.094;8.748;2023-02-08T07:12:00;13.55;;;6.97;;
72557;SDS011;60583;50.094;8.748;2023-02-08T07:14:37;13.43;;;7.03;;
72557;SDS011;60583;50.094;8.748;2023-02-08T07:17:04;16.45;;;8.00;;
72557;SDS011;60583;50.094;8.748;2023-02-08T07:19:30;15.32;;;8.02;;
72557;SDS011;60583;50.094;8.748;2023-02-08T07:21:56;14.07;;;7.20;;
72557;SDS011;60583;50.094;8.748;2023-02-08T07:24:22;14.07;;;7.35;;
72557;SDS011;60583;50.094;8.748;2023-02-08T07:26:48;15.02;;;7.53;;
72557;SDS011;60583;50.094;8.748;2023-02-08T07:29:13;13.95;;;8.63;;
72557;SDS011;60583;50.094;8.748;2023-02-08T07:31:39;14.23;;;7.68;;
72557;SDS011;60583;50.094;8.748;2023-02-08T07:34:04;14.30;;;7.63;;
72557;SDS011;60583;50.094;8.748;2023-02-08T07:36:30;14.88;;;7.68;;
72557;SDS011;60583;50.094;8.748;2023-02-08T07:38:55;14.32;;;7.30;;
72557;SDS011;60583;50.094;8.748;2023-02-08T07:41:21;13.32;;;7.38;;
72557;SDS011;60583;50.094;8.748;2023-02-08T07:43:46;15.15;;;7.03;;
72557;SDS011;60583;50.094;8.748;2023-02-08T07:46:13;16.38;;;8.07;;
72557;SDS011;60583;50.094;8.748;2023-02-08T07:48:40;16.15;;;7.57;;
72557;SDS011;60583;50.094;8.748;2023-02-08T07:51:07;17.48;;;8.38;;
72557;SDS011;60583;50.094;8.748;2023-02-08T07:53:33;16.17;;;7.20;;
72557;SDS011;60583;50.094;8.748;2023-02-08T07:55:59;13.30;;;6.72;;
72557;SDS011;60583;50.094;8.748;2023-02-08T07:58:25;17.00;;;7.60;;
72557;SDS011;60583;50.094;8.748;2023-02-08T08:00:51;20.42;;;8.02;;
72557;SDS011;60583;50.094;8.748;2023-02-08T08:03:17;16.52;;;8.60;;
72557;SDS011;60583;50.094;8.748;2023-02-08T08:05:43;14.13;;;8.10;;
72557;SDS011;60583;50.094;8.748;2023-02-08T08:08:08;15.55;;;7.97;;
72557;SDS011;60583;50.094;8.748;2023-02-08T08:10:35;14.68;;;7.90;;
72557;SDS011;60583;50.094;8.748;2023-02-08T08:13:01;13.48;;;7.00;;
72557;SDS011;60583;50.094;8.748;2023-02-08T08:15:26;12.80;;;6.97;;
72557;SDS011;60583;50.094;8.748;2023-02-08T08:17:52;13.98;;;7.22;;
72557;SDS011;60583;50.094;8.748;2023-02-08T08:20:18;15.50;;;7.72;;
72557;SDS011;60583;50.094;8.748;2023-02-08T08:22:44;15.18;;;7.18;;
72557;SDS011;60583;50.094;8.748;2023-02-08T08:25:10;13.75;;;6.72;;
72557;SDS011;60583;50.094;8.748;2023-02-08T08:27:35;13.80;;;6.22;;
72557;SDS011;60583;50.094;8.748;2023-02-08T08:30:01;14.95;;;6.43;;
72557;SDS011;60583;50.094;8.748;2023-02-08T08:32:27;14.02;;;6.97;;
72557;SDS011;60583;50.094;8.748;2023-02-08T08:34:53;14.80;;;5.90;;
72557;SDS011;60583;50.094;8.748;2023-02-08T08:37:18;11.75;;;6.13;;
72557;SDS011;60583;50.094;8.748;2023-02-08T08:39:44;11.05;;;6.10;;
72557;SDS011;60583;50.094;8.748;2023-02-08T08:42:09;11.90;;;6.05;;
72557;SDS011;60583;50.094;8.748;2023-02-08T08:44:35;12.10;;;6.38;;
72557;SDS011;60583;50.094;8.748;2023-02-08T08:47:00;11.52;;;6.28;;
72557;SDS011;60583;50.094;8.748;2023-02-08T08:49:27;13.50;;;6.22;;
72557;SDS011;60583;50.094;8.748;2023-02-08T08:51:53;13.23;;;6.68;;
72557;SDS011;60583;50.094;8.748;2023-02-08T08:54:19;14.50;;;5.97;;
72557;SDS011;60583;50.094;8.748;2023-02-08T08:56:46;13.88;;;6.78;;
72557;SDS011;60583;50.094;8.748;2023-02-08T08:59:11;14.05;;;6.13;;
72557;SDS011;60583;50.094;8.748;2023-02-08T09:01:37;12.23;;;6.55;;
72557;SDS011;60583;50.094;8.748;2023-02-08T09:04:03;16.80;;;6.93;;
72557;SDS011;60583;50.094;8.748;2023-02-08T09:06:29;12.25;;;6.97;;
72557;SDS011;60583;50.094;8.748;2023-02-08T09:08:54;13.63;;;7.38;;
72557;SDS011;60583;50.094;8.748;2023-02-08T09:11:20;13.73;;;7.20;;
72557;SDS011;60583;50.094;8.748;2023-02-08T09:13:46;12.90;;;6.70;;
72557;SDS011;60583;50.094;8.748;2023-02-08T09:16:17;14.98;;;6.57;;
72557;SDS011;60583;50.094;8.748;2023-02-08T09:18:43;13.10;;;6.90;;
72557;SDS011;60583;50.094;8.748;2023-02-08T09:21:16;16.10;;;7.00;;
72557;SDS011;60583;50.094;8.748;2023-02-08T09:23:44;12.98;;;7.03;;
72557;SDS011;60583;50.094;8.748;2023-02-08T09:26:12;14.55;;;6.43;;
72557;SDS011;60583;50.094;8.748;2023-02-08T09:28:39;15.88;;;7.72;;
72557;SDS011;60583;50.094;8.748;2023-02-08T09:33:37;15.27;;;6.93;;
72557;SDS011;60583;50.094;8.748;2023-02-08T09:36:03;16.35;;;6.65;;
72557;SDS011;60583;50.094;8.748;2023-02-08T09:38:29;14.52;;;6.88;;
72557;SDS011;60583;50.094;8.748;2023-02-08T09:44:26;14.68;;;7.43;;
72557;SDS011;60583;50.094;8.748;2023-02-08T09:46:59;14.20;;;7.45;;
72557;SDS011;60583;50.094;8.748;2023-02-08T09:49:28;14.70;;;7.55;;
72557;SDS011;60583;50.094;8.748;2023-02-08T09:52:07;15.85;;;8.27;;
72557;SDS011;60583;50.094;8.748;2023-02-08T09:54:41;14.45;;;7.43;;
72557;SDS011;60583;50.094;8.748;2023-02-08T09:57:15;14.23;;;7.63;;
72557;SDS011;60583;50.094;8.748;2023-02-08T09:59:55;17.13;;;7.55;;
72557;SDS011;60583;50.094;8.748;2023-02-08T10:02:28;13.00;;;7.28;;
72557;SDS011;60583;50.094;8.748;2023-02-08T10:04:57;13.15;;;7.57;;
72557;SDS011;60583;50.094;8.748;2023-02-08T10:07:27;15.50;;;7.95;;
72557;SDS011;60583;50.094;8.748;2023-02-08T10:09:55;15.25;;;8.30;;
72557;SDS011;60583;50.094;8.748;2023-02-08T10:15:15;14.70;;;7.90;;
72557;SDS011;60583;50.094;8.748;2023-02-08T10:18:18;15.60;;;8.57;;
72557;SDS011;60583;50.094;8.748;2023-02-08T10:26:25;16.00;;;8.80;;
72557;SDS011;60583;50.094;8.748;2023-02-08T10:29:04;14.75;;;8.57;;
72557;SDS011;60583;50.094;8.748;2023-02-08T10:34:45;14.98;;;8.57;;
72557;SDS011;60583;50.094;8.748;2023-02-08T10:37:18;13.57;;;7.80;;
72557;SDS011;60583;50.094;8.748;2023-02-08T10:39:49;14.55;;;8.90;;
72557;SDS011;60583;50.094;8.748;2023-02-08T10:42:16;15.07;;;9.32;;
72557;SDS011;60583;50.094;8.748;2023-02-08T10:47:41;14.90;;;9.10;;
72557;SDS011;60583;50.094;8.748;2023-02-08T10:50:13;14.38;;;9.00;;
72557;SDS011;60583;50.094;8.748;2023-02-08T10:52:39;14.00;;;8.57;;
72557;SDS011;60583;50.094;8.748;2023-02-08T10:55:15;14.40;;;8.77;;
72557;SDS011;60583;50.094;8.748;2023-02-08T10:57:43;12.85;;;8.80;;
72557;SDS011;60583;50.094;8.748;2023-02-08T11:00:20;14.55;;;9.07;;
72557;SDS011;60583;50.094;8.748;2023-02-08T11:02:51;14.80;;;9.32;;
72557;SDS011;60583;50.094;8.748;2023-02-08T11:05:19;16.33;;;9.65;;
72557;SDS011;60583;50.094;8.748;2023-02-08T11:10:30;13.38;;;9.27;;
72557;SDS011;60583;50.094;8.748;2023-02-08T11:13:04;14.90;;;10.38;;
72557;SDS011;60583;50.094;8.748;2023-02-08T11:15:46;14.10;;;10.02;;
72557;SDS011;60583;50.094;8.748;2023-02-08T11:21:06;12.35;;;8.40;;
72557;SDS011;60583;50.094;8.748;2023-02-08T11:23:35;11.93;;;8.85;;
72557;SDS011;60583;50.094;8.748;2023-02-08T11:28:42;11.43;;;8.73;;
72557;SDS011;60583;50.094;8.748;2023-02-08T11:31:15;12.18;;;8.40;;
72557;SDS011;60583;50.094;8.748;2023-02-08T11:38:59;11.40;;;7.60;;
72557;SDS011;60583;50.094;8.748;2023-02-08T11:41:26;12.27;;;7.70;;
72557;SDS011;60583;50.094;8.748;2023-02-08T11:43:54;12.07;;;7.03;;
72557;SDS011;60583;50.094;8.748;2023-02-08T11:46:24;12.52;;;7.57;;
72557;SDS011;60583;50.094;8.748;2023-02-08T11:48:52;11.32;;;7.22;;
72557;SDS011;60583;50.094;8.748;2023-02-08T11:51:24;11.27;;;8.48;;
72557;SDS011;60583;50.094;8.748;2023-02-08T11:53:55;12.57;;;7.95;;
72557;SDS011;60583;50.094;8.748;2023-02-08T11:56:25;11.02;;;7.22;;
72557;SDS011;60583;50.094;8.748;2023-02-08T12:01:31;9.98;;;7.25;;
72557;SDS011;60583;50.094;8.748;2023-02-08T12:03:59;12.70;;;8.25;;
72557;SDS011;60583;50.094;8.748;2023-02-08T12:06:44;11.30;;;7.03;;
72557;SDS011;60583;50.094;8.748;2023-02-08T12:12:17;11.25;;;7.30;;
72557;SDS011;60583;50.094;8.748;2023-02-08T12:15:04;10.50;;;6.57;;
72557;SDS011;60583;50.094;8.748;2023-02-08T12:18:03;11.63;;;7.15;;
72557;SDS011;60583;50.094;8.748;2023-02-08T12:20:44;10.18;;;6.95;;
72557;SDS011;60583;50.094;8.748;2023-02-08T12:23:26;10.38;;;6.57;;
72557;SDS011;60583;50.094;8.748;2023-02-08T12:26:13;10.68;;;6.88;;
72557;SDS011;60583;50.094;8.748;2023-02-08T12:29:07;11.85;;;7.20;;
72557;SDS011;60583;50.094;8.748;2023-02-08T12:37:29;9.55;;;6.82;;
72557;SDS011;60583;50.094;8.748;2023-02-08T12:43:42;10.02;;;7.03;;
72557;SDS011;60583;50.094;8.748;2023-02-08T12:54:24;9.98;;;6.57;;
72557;SDS011;60583;50.094;8.748;2023-02-08T12:56:55;10.70;;;7.07;;
72557;SDS011;60583;50.094;8.748;2023-02-08T12:59:25;8.57;;;5.25;;
72557;SDS011;60583;50.094;8.748;2023-02-08T13:01:58;9.93;;;5.72;;
72557;SDS011;60583;50.094;8.748;2023-02-08T13:04:30;9.15;;;5.95;;
72557;SDS011;60583;50.094;8.748;2023-02-08T13:07:06;9.30;;;5.45;;
72557;SDS011;60583;50.094;8.748;2023-02-08T13:09:50;10.05;;;5.60;;
72557;SDS011;60583;50.094;8.748;2023-02-08T13:12:24;9.85;;;5.63;;
72557;SDS011;60583;50.094;8.748;2023-02-08T13:15:36;8.73;;;5.65;;
72557;SDS011;60583;50.094;8.748;2023-02-08T13:17:50;9.75;;;6.35;;
72557;SDS011;60583;50.094;8.748;2023-02-08T13:20:26;8.32;;;5.45;;
72557;SDS011;60583;50.094;8.748;2023-02-08T13:23:00;9.80;;;5.78;;
72557;SDS011;60583;50.094;8.748;2023-02-08T13:25:31;9.65;;;6.28;;
72557;SDS011;60583;50.094;8.748;2023-02-08T13:28:01;10.73;;;5.70;;
72557;SDS011;60583;50.094;8.748;2023-02-08T13:30:28;8.70;;;5.68;;
72557;SDS011;60583;50.094;8.748;2023-02-08T13:32:56;9.18;;;5.50;;
72557;SDS011;60583;50.094;8.748;2023-02-08T13:35:24;9.65;;;5.70;;
72557;SDS011;60583;50.094;8.748;2023-02-08T13:40:49;11.98;;;7.10;;
72557;SDS011;60583;50.094;8.748;2023-02-08T13:43:30;11.15;;;5.97;;
72557;SDS011;60583;50.094;8.748;2023-02-08T13:46:03;10.50;;;5.57;;
72557;SDS011;60583;50.094;8.748;2023-02-08T13:48:42;9.85;;;5.13;;
72557;SDS011;60583;50.094;8.748;2023-02-08T13:51:49;9.63;;;4.97;;
72557;SDS011;60583;50.094;8.748;2023-02-08T13:56:37;10.15;;;5.38;;
72557;SDS011;60583;50.094;8.748;2023-02-08T13:59:23;9.18;;;4.65;;
72557;SDS011;60583;50.094;8.748;2023-02-08T14:07:58;8.88;;;4.45;;
72557;SDS011;60583;50.094;8.748;2023-02-08T14:10:29;8.70;;;4.25;;
72557;SDS011;60583;50.094;8.748;2023-02-08T14:13:17;8.55;;;4.20;;
72557;SDS011;60583;50.094;8.748;2023-02-08T14:18:56;9.20;;;4.47;;
72557;SDS011;60583;50.094;8.748;2023-02-08T14:21:31;10.77;;;4.55;;
72557;SDS011;60583;50.094;8.748;2023-02-08T14:24:02;7.95;;;4.22;;
72557;SDS011;60583;50.094;8.748;2023-02-08T14:26:30;8.20;;;4.32;;
72557;SDS011;60583;50.094;8.748;2023-02-08T14:28:57;9.80;;;4.32;;
72557;SDS011;60583;50.094;8.748;2023-02-08T14:31:41;9.70;;;4.25;;
72557;SDS011;60583;50.094;8.748;2023-02-08T14:39:44;10.52;;;4.40;;
72557;SDS011;60583;50.094;8.748;2023-02-08T14:42:15;12.57;;;6.53;;
72557;SDS011;60583;50.094;8.748;2023-02-08T14:45:39;13.45;;;6.97;;
72557;SDS011;60583;50.094;8.748;2023-02-08T14:50:58;8.40;;;4.10;;
72557;SDS011;60583;50.094;8.748;2023-02-08T14:56:12;7.68;;;4.28;;
72557;SDS011;60583;50.094;8.748;2023-02-08T14:58:48;8.23;;;4.22;;
72557;SDS011;60583;50.094;8.748;2023-02-08T15:01:18;8.00;;;3.92;;
72557;SDS011;60583;50.094;8.748;2023-02-08T15:03:49;7.20;;;3.90;;
72557;SDS011;60583;50.094;8.748;2023-02-08T15:06:21;8.15;;;4.15;;
72557;SDS011;60583;50.094;8.748;2023-02-08T15:09:05;9.27;;;4.22;;
72557;SDS011;60583;50.094;8.748;2023-02-08T15:11:40;10.60;;;4.15;;
72557;SDS011;60583;50.094;8.748;2023-02-08T15:14:06;9.82;;;4.45;;
72557;SDS011;60583;50.094;8.748;2023-02-08T15:16:41;10.00;;;4.43;;
72557;SDS011;60583;50.094;8.748;2023-02-08T15:19:08;9.05;;;4.65;;
72557;SDS011;60583;50.094;8.748;2023-02-08T15:21:42;11.57;;;5.38;;
72557;SDS011;60583;50.094;8.748;2023-02-08T15:26:45;12.10;;;5.38;;
72557;SDS011;60583;50.094;8.748;2023-02-08T15:29:39;12.95;;;6.97;;
72557;SDS011;60583;50.094;8.748;2023-02-08T15:32:08;11.35;;;5.63;;
72557;SDS011;60583;50.094;8.748;2023-02-08T15:34:40;10.55;;;5.13;;
72557;SDS011;60583;50.094;8.748;2023-02-08T15:37:11;11.07;;;5.78;;
72557;SDS011;60583;50.094;8.748;2023-02-08T15:39:41;8.82;;;4.85;;
72557;SDS011;60583;50.094;8.748;2023-02-08T15:42:20;11.05;;;5.57;;
72557;SDS011;60583;50.094;8.748;2023-02-08T15:44:48;10.70;;;5.90;;
72557;SDS011;60583;50.094;8.748;2023-02-08T15:47:16;7.50;;;4.25;;
72557;SDS011;60583;50.094;8.748;2023-02-08T15:49:47;10.20;;;4.65;;
72557;SDS011;60583;50.094;8.748;2023-02-08T15:52:16;8.52;;;4.03;;
72557;SDS011;60583;50.094;8.748;2023-02-08T15:54:43;9.63;;;4.97;;
72557;SDS011;60583;50.094;8.748;2023-02-08T16:00:03;8.18;;;4.40;;
72557;SDS011;60583;50.094;8.748;2023-02-08T16:02:37;7.50;;;3.85;;
72557;SDS011;60583;50.094;8.748;2023-02-08T16:05:09;8.48;;;3.60;;
72557;SDS011;60583;50.094;8.748;2023-02-08T16:07:42;8.65;;;4.03;;
72557;SDS011;60583;50.094;8.748;2023-02-08T16:10:20;9.23;;;4.30;;
72557;SDS011;60583;50.094;8.748;2023-02-08T16:12:49;7.63;;;3.95;;
72557;SDS011;60583;50.094;8.748;2023-02-08T16:17:59;9.60;;;3.95;;
72557;SDS011;60583;50.094;8.748;2023-02-08T16:20:28;9.35;;;4.55;;
72557;SDS011;60583;50.094;8.748;2023-02-08T16:22:59;10.10;;;4.38;;
72557;SDS011;60583;50.094;8.748;2023-02-08T16:25:46;9.45;;;4.63;;
72557;SDS011;60583;50.094;8.748;2023-02-08T16:28:30;9.38;;;4.38;;
72557;SDS011;60583;50.094;8.748;2023-02-08T16:31:02;10.43;;;4.82;;
72557;SDS011;60583;50.094;8.748;2023-02-08T16:33:29;9.52;;;4.55;;
72557;SDS011;60583;50.094;8.748;2023-02-08T16:35:56;8.45;;;4.68;;
72557;SDS011;60583;50.094;8.748;2023-02-08T16:38:26;9.25;;;4.78;;
72557;SDS011;60583;50.094;8.748;2023-02-08T16:40:59;9.43;;;4.93;;
72557;SDS011;60583;50.094;8.748;2023-02-08T16:43:36;12.77;;;5.80;;
72557;SDS011;60583;50.094;8.748;2023-02-08T16:48:33;9.90;;;4.80;;
72557;SDS011;60583;50.094;8.748;2023-02-08T16:51:01;9.80;;;5.22;;
72557;SDS011;60583;50.094;8.748;2023-02-08T16:53:28;14.27;;;7.03;;
72557;SDS011;60583;50.094;8.748;2023-02-08T16:55:54;10.80;;;5.57;;